sensor_id;sensor_type;location;lat;lon;timestamp;pressure;altitude;pressure_sealevel;temperature;humidity
55656;BME280;41530;52.382;5.270;2024-03-08T00:02:18;102201.09;;;15.02;48.97
55656;BME280;41530;52.382;5.270;2024-03-08T00:04:46;102206.19;;;15.05;48.67
55656;BME280;41530;52.382;5.270;2024-03-08T00:07:12;102204.19;;;15.08;49.02
55656;BME280;41530;52.382;5.270;2024-03-08T00:09:40;102191.66;;;14.97;48.87
55656;BME280;41530;52.382;5.270;2024-03-08T00:12:06;102186.91;;;15.03;48.67
55656;BME280;41530;52.382;5.270;2024-03-08T00:14:33;102197.50;;;15.03;48.82
55656;BME280;41530;52.382;5.270;2024-03-08T00:17:00;102185.31;;;15.00;48.65
55656;BME280;41530;52.382;5.270;2024-03-08T00:19:27;102193.06;;;15.03;48.43
55656;BME280;41530;52.382;5.270;2024-03-08T00:21:54;102194.00;;;15.02;48.68
55656;BME280;41530;52.382;5.270;2024-03-08T00:24:21;102169.47;;;14.86;48.79
55656;BME280;41530;52.382;5.270;2024-03-08T00:26:51;102189.66;;;15.01;48.62
55656;BME280;41530;52.382;5.270;2024-03-08T00:29:20;102180.19;;;14.97;48.80
55656;BME280;41530;52.382;5.270;2024-03-08T00:31:48;102178.69;;;14.93;48.69
55656;BME280;41530;52.382;5.270;2024-03-08T00:34:15;102178.78;;;14.91;48.71
55656;BME280;41530;52.382;5.270;2024-03-08T00:36:42;102179.44;;;14.95;48.50
55656;BME280;41530;52.382;5.270;2024-03-08T00:39:09;102158.13;;;14.84;48.50
55656;BME280;41530;52.382;5.270;2024-03-08T00:41:35;102184.56;;;14.98;48.66
55656;BME280;41530;52.382;5.270;2024-03-08T00:44:02;102149.53;;;14.80;48.53
55656;BME280;41530;52.382;5.270;2024-03-08T00:46:31;102166.72;;;14.87;48.53
55656;BME280;41530;52.382;5.270;2024-03-08T00:48:58;102145.19;;;14.79;48.54
55656;BME280;41530;52.382;5.270;2024-03-08T00:51:28;102167.25;;;14.92;48.56
55656;BME280;41530;52.382;5.270;2024-03-08T00:53:54;102159.72;;;14.86;48.50
55656;BME280;41530;52.382;5.270;2024-03-08T00:56:21;102152.72;;;14.85;48.39
55656;BME280;41530;52.382;5.270;2024-03-08T00:58:48;102163.66;;;14.93;48.38
55656;BME280;41530;52.382;5.270;2024-03-08T01:01:15;102148.19;;;14.87;48.43
55656;BME280;41530;52.382;5.270;2024-03-08T01:03:45;102149.78;;;14.90;48.43
55656;BME280;41530;52.382;5.270;2024-03-08T01:06:14;102150.28;;;14.82;48.50
55656;BME280;41530;52.382;5.270;2024-03-08T01:08:41;102150.06;;;14.85;48.34
55656;BME280;41530;52.382;5.270;2024-03-08T01:11:08;102155.94;;;14.90;48.11
55656;BME280;41530;52.382;5.270;2024-03-08T01:13:35;102145.53;;;14.87;48.40
55656;BME280;41530;52.382;5.270;2024-03-08T01:16:05;102133.22;;;14.86;48.24
55656;BME280;41530;52.382;5.270;2024-03-08T01:18:32;102129.84;;;14.84;48.22
55656;BME280;41530;52.382;5.270;2024-03-08T01:20:59;102139.47;;;14.85;48.39
55656;BME280;41530;52.382;5.270;2024-03-08T01:23:26;102117.22;;;14.75;48.33
55656;BME280;41530;52.382;5.270;2024-03-08T01:25:52;102082.31;;;14.56;48.47
55656;BME280;41530;52.382;5.270;2024-03-08T01:28:24;102110.03;;;14.77;48.18
55656;BME280;41530;52.382;5.270;2024-03-08T01:30:54;102105.66;;;14.76;48.25
55656;BME280;41530;52.382;5.270;2024-03-08T01:33:25;102078.31;;;14.63;48.24
55656;BME280;41530;52.382;5.270;2024-03-08T01:35:53;102110.75;;;14.79;48.15
55656;BME280;41530;52.382;5.270;2024-03-08T01:38:20;102088.56;;;14.68;48.23
55656;BME280;41530;52.382;5.270;2024-03-08T01:40:50;102088.47;;;14.69;48.20
55656;BME280;41530;52.382;5.270;2024-03-08T01:43:21;102087.72;;;14.67;48.07
55656;BME280;41530;52.382;5.270;2024-03-08T01:45:49;102075.84;;;14.60;48.07
55656;BME280;41530;52.382;5.270;2024-03-08T01:48:17;102079.03;;;14.65;48.17
55656;BME280;41530;52.382;5.270;2024-03-08T01:50:45;102065.56;;;14.55;48.18
55656;BME280;41530;52.382;5.270;2024-03-08T01:53:13;102060.91;;;14.59;47.98
55656;BME280;41530;52.382;5.270;2024-03-08T01:55:42;102073.72;;;14.65;48.15
55656;BME280;41530;52.382;5.270;2024-03-08T01:58:09;102075.22;;;14.69;48.15
55656;BME280;41530;52.382;5.270;2024-03-08T02:00:40;102059.31;;;14.56;48.29
55656;BME280;41530;52.382;5.270;2024-03-08T02:03:07;102074.56;;;14.66;48.12
55656;BME280;41530;52.382;5.270;2024-03-08T02:05:34;102071.09;;;14.65;48.06
55656;BME280;41530;52.382;5.270;2024-03-08T02:08:01;102052.53;;;14.52;48.20
55656;BME280;41530;52.382;5.270;2024-03-08T02:10:29;102054.22;;;14.53;48.25
55656;BME280;41530;52.382;5.270;2024-03-08T02:12:55;102061.13;;;14.56;48.09
55656;BME280;41530;52.382;5.270;2024-03-08T02:15:22;102060.59;;;14.51;48.06
55656;BME280;41530;52.382;5.270;2024-03-08T02:17:49;102066.13;;;14.60;48.01
55656;BME280;41530;52.382;5.270;2024-03-08T02:20:16;102058.66;;;14.53;47.89
55656;BME280;41530;52.382;5.270;2024-03-08T02:22:43;102066.31;;;14.57;48.08
55656;BME280;41530;52.382;5.270;2024-03-08T02:25:10;102050.72;;;14.53;48.05
55656;BME280;41530;52.382;5.270;2024-03-08T02:27:37;102052.22;;;14.57;48.06
55656;BME280;41530;52.382;5.270;2024-03-08T02:30:04;102048.72;;;14.56;48.00
55656;BME280;41530;52.382;5.270;2024-03-08T02:32:31;102050.63;;;14.54;48.11
55656;BME280;41530;52.382;5.270;2024-03-08T02:34:59;102042.78;;;14.53;47.83
55656;BME280;41530;52.382;5.270;2024-03-08T02:37:26;102047.13;;;14.54;48.17
55656;BME280;41530;52.382;5.270;2024-03-08T02:39:55;102041.06;;;14.52;47.83
55656;BME280;41530;52.382;5.270;2024-03-08T02:42:22;102032.06;;;14.42;48.05
55656;BME280;41530;52.382;5.270;2024-03-08T02:44:49;102041.31;;;14.49;47.82
55656;BME280;41530;52.382;5.270;2024-03-08T02:47:16;102019.66;;;14.42;48.05
55656;BME280;41530;52.382;5.270;2024-03-08T02:49:43;102024.78;;;14.45;48.04
55656;BME280;41530;52.382;5.270;2024-03-08T02:52:09;102005.88;;;14.37;48.10
55656;BME280;41530;52.382;5.270;2024-03-08T02:54:37;102029.31;;;14.43;47.95
55656;BME280;41530;52.382;5.270;2024-03-08T02:57:04;102010.44;;;14.35;47.99
55656;BME280;41530;52.382;5.270;2024-03-08T02:59:31;101999.28;;;14.30;48.08
55656;BME280;41530;52.382;5.270;2024-03-08T03:01:58;102010.63;;;14.32;47.96
55656;BME280;41530;52.382;5.270;2024-03-08T03:04:24;102003.53;;;14.33;48.01
55656;BME280;41530;52.382;5.270;2024-03-08T03:06:51;102013.53;;;14.42;48.25
55656;BME280;41530;52.382;5.270;2024-03-08T03:09:18;101999.94;;;14.34;48.00
55656;BME280;41530;52.382;5.270;2024-03-08T03:11:50;101986.34;;;14.25;47.87
55656;BME280;41530;52.382;5.270;2024-03-08T03:14:16;102004.91;;;14.38;48.04
55656;BME280;41530;52.382;5.270;2024-03-08T03:16:43;101989.66;;;14.29;48.21
55656;BME280;41530;52.382;5.270;2024-03-08T03:19:11;101997.38;;;14.32;48.05
55656;BME280;41530;52.382;5.270;2024-03-08T03:21:38;101982.66;;;14.28;48.07
55656;BME280;41530;52.382;5.270;2024-03-08T03:24:05;101988.59;;;14.32;48.03
55656;BME280;41530;52.382;5.270;2024-03-08T03:26:39;101987.84;;;14.30;48.09
55656;BME280;41530;52.382;5.270;2024-03-08T03:29:07;101976.75;;;14.24;48.04
55656;BME280;41530;52.382;5.270;2024-03-08T03:31:35;101975.66;;;14.27;47.89
55656;BME280;41530;52.382;5.270;2024-03-08T03:34:02;101984.69;;;14.24;48.13
55656;BME280;41530;52.382;5.270;2024-03-08T03:36:30;101984.56;;;14.26;48.20
55656;BME280;41530;52.382;5.270;2024-03-08T03:38:57;101979.38;;;14.24;48.23
55656;BME280;41530;52.382;5.270;2024-03-08T03:41:43;101976.94;;;14.21;48.11
55656;BME280;41530;52.382;5.270;2024-03-08T03:44:12;101958.16;;;14.12;48.16
55656;BME280;41530;52.382;5.270;2024-03-08T03:46:41;101978.53;;;14.24;48.26
55656;BME280;41530;52.382;5.270;2024-03-08T03:49:10;101965.91;;;14.15;48.15
55656;BME280;41530;52.382;5.270;2024-03-08T03:51:37;101962.50;;;14.13;48.08
55656;BME280;41530;52.382;5.270;2024-03-08T03:54:03;101962.63;;;14.11;48.36
55656;BME280;41530;52.382;5.270;2024-03-08T03:56:30;101978.19;;;14.16;47.80
55656;BME280;41530;52.382;5.270;2024-03-08T03:58:57;101971.28;;;14.13;48.25
55656;BME280;41530;52.382;5.270;2024-03-08T04:01:24;101956.69;;;14.08;48.25
55656;BME280;41530;52.382;5.270;2024-03-08T04:03:50;101968.75;;;14.12;48.22
55656;BME280;41530;52.382;5.270;2024-03-08T04:06:17;101967.19;;;14.09;48.21
55656;BME280;41530;52.382;5.270;2024-03-08T04:08:46;101951.88;;;14.00;48.09
55656;BME280;41530;52.382;5.270;2024-03-08T04:11:13;101968.88;;;14.10;48.30
55656;BME280;41530;52.382;5.270;2024-03-08T04:13:43;101963.78;;;14.07;48.22
55656;BME280;41530;52.382;5.270;2024-03-08T04:16:10;101954.13;;;14.06;48.17
55656;BME280;41530;52.382;5.270;2024-03-08T04:18:37;101955.84;;;14.07;48.16
55656;BME280;41530;52.382;5.270;2024-03-08T04:21:05;101954.88;;;14.08;48.22
55656;BME280;41530;52.382;5.270;2024-03-08T04:23:34;101946.59;;;14.00;48.14
55656;BME280;41530;52.382;5.270;2024-03-08T04:26:04;101942.16;;;14.01;48.21
55656;BME280;41530;52.382;5.270;2024-03-08T04:28:32;101942.25;;;13.99;48.25
55656;BME280;41530;52.382;5.270;2024-03-08T04:31:00;101939.75;;;13.98;48.10
55656;BME280;41530;52.382;5.270;2024-03-08T04:33:29;101939.94;;;13.95;48.19
55656;BME280;41530;52.382;5.270;2024-03-08T04:35:56;101954.25;;;14.05;48.36
55656;BME280;41530;52.382;5.270;2024-03-08T04:38:23;101949.16;;;14.02;48.08
55656;BME280;41530;52.382;5.270;2024-03-08T04:40:51;101932.19;;;13.91;48.08
55656;BME280;41530;52.382;5.270;2024-03-08T04:43:18;101951.13;;;13.98;48.13
55656;BME280;41530;52.382;5.270;2024-03-08T04:45:47;101934.53;;;13.96;48.01
55656;BME280;41530;52.382;5.270;2024-03-08T04:48:14;101938.13;;;13.95;48.11
55656;BME280;41530;52.382;5.270;2024-03-08T04:50:42;101941.41;;;13.99;48.10
55656;BME280;41530;52.382;5.270;2024-03-08T04:53:08;101940.78;;;13.95;48.14
55656;BME280;41530;52.382;5.270;2024-03-08T04:55:35;101930.59;;;13.89;48.18
55656;BME280;41530;52.382;5.270;2024-03-08T04:58:03;101935.03;;;13.88;48.36
55656;BME280;41530;52.382;5.270;2024-03-08T05:00:34;101927.94;;;13.89;48.34
55656;BME280;41530;52.382;5.270;2024-03-08T05:03:01;101919.97;;;13.76;48.14
55656;BME280;41530;52.382;5.270;2024-03-08T05:05:28;101937.59;;;13.90;48.20
55656;BME280;41530;52.382;5.270;2024-03-08T05:07:55;101939.94;;;13.95;48.38
55656;BME280;41530;52.382;5.270;2024-03-08T05:10:22;101921.91;;;13.87;48.17
55656;BME280;41530;52.382;5.270;2024-03-08T05:12:49;101929.66;;;13.90;47.97
55656;BME280;41530;52.382;5.270;2024-03-08T05:15:15;101919.59;;;13.82;48.08
55656;BME280;41530;52.382;5.270;2024-03-08T05:17:42;101930.41;;;13.92;48.09
55656;BME280;41530;52.382;5.270;2024-03-08T05:20:09;101920.88;;;13.89;48.22
55656;BME280;41530;52.382;5.270;2024-03-08T05:22:39;101919.25;;;13.87;48.19
55656;BME280;41530;52.382;5.270;2024-03-08T05:25:07;101926.34;;;13.86;48.43
55656;BME280;41530;52.382;5.270;2024-03-08T05:27:37;101911.09;;;13.77;48.01
55656;BME280;41530;52.382;5.270;2024-03-08T05:30:04;101909.41;;;13.76;48.12
55656;BME280;41530;52.382;5.270;2024-03-08T05:32:31;101918.63;;;13.83;47.87
55656;BME280;41530;52.382;5.270;2024-03-08T05:34:58;101923.69;;;13.86;48.09
55656;BME280;41530;52.382;5.270;2024-03-08T05:37:25;101927.19;;;13.87;48.13
55656;BME280;41530;52.382;5.270;2024-03-08T05:39:52;101926.34;;;13.86;48.11
55656;BME280;41530;52.382;5.270;2024-03-08T05:42:20;101913.66;;;13.79;48.03
55656;BME280;41530;52.382;5.270;2024-03-08T05:44:47;101912.59;;;13.81;47.91
55656;BME280;41530;52.382;5.270;2024-03-08T05:47:14;101911.84;;;13.79;48.07
55656;BME280;41530;52.382;5.270;2024-03-08T05:49:42;101915.34;;;13.80;48.17
55656;BME280;41530;52.382;5.270;2024-03-08T05:52:10;101911.75;;;13.81;49.08
55656;BME280;41530;52.382;5.270;2024-03-08T05:54:37;101902.59;;;13.72;49.91
55656;BME280;41530;52.382;5.270;2024-03-08T05:57:04;101919.50;;;13.84;49.53
55656;BME280;41530;52.382;5.270;2024-03-08T05:59:31;101898.31;;;13.71;49.82
55656;BME280;41530;52.382;5.270;2024-03-08T06:01:57;101900.72;;;13.74;49.49
55656;BME280;41530;52.382;5.270;2024-03-08T06:04:24;101894.47;;;13.75;49.63
55656;BME280;41530;52.382;5.270;2024-03-08T06:06:51;101901.38;;;13.78;49.67
55656;BME280;41530;52.382;5.270;2024-03-08T06:09:18;101907.22;;;13.83;49.52
55656;BME280;41530;52.382;5.270;2024-03-08T06:11:53;101909.84;;;13.83;49.60
55656;BME280;41530;52.382;5.270;2024-03-08T06:14:21;101886.03;;;13.70;49.40
55656;BME280;41530;52.382;5.270;2024-03-08T06:16:48;101901.16;;;13.81;49.60
55656;BME280;41530;52.382;5.270;2024-03-08T06:19:17;101889.28;;;13.74;49.51
55656;BME280;41530;52.382;5.270;2024-03-08T06:21:43;101866.97;;;13.65;49.50
55656;BME280;41530;52.382;5.270;2024-03-08T06:24:13;101889.94;;;13.77;49.73
55656;BME280;41530;52.382;5.270;2024-03-08T06:26:42;101861.66;;;13.65;49.68
55656;BME280;41530;52.382;5.270;2024-03-08T06:29:09;101886.34;;;13.78;49.59
55656;BME280;41530;52.382;5.270;2024-03-08T06:31:36;101860.06;;;13.63;49.43
55656;BME280;41530;52.382;5.270;2024-03-08T06:34:06;101883.72;;;13.78;49.58
55656;BME280;41530;52.382;5.270;2024-03-08T06:36:35;101884.56;;;13.79;49.27
55656;BME280;41530;52.382;5.270;2024-03-08T06:39:01;101889.75;;;13.80;49.40
55656;BME280;41530;52.382;5.270;2024-03-08T06:41:36;101890.69;;;13.79;49.19
55656;BME280;41530;52.382;5.270;2024-03-08T06:44:03;101891.44;;;13.81;49.18
55656;BME280;41530;52.382;5.270;2024-03-08T06:46:30;101876.53;;;13.80;49.33
55656;BME280;41530;52.382;5.270;2024-03-08T06:48:57;101874.91;;;13.78;49.03
55656;BME280;41530;52.382;5.270;2024-03-08T06:51:24;101892.19;;;13.83;48.92
55656;BME280;41530;52.382;5.270;2024-03-08T06:53:50;101877.38;;;13.81;48.95
55656;BME280;41530;52.382;5.270;2024-03-08T06:56:18;101877.28;;;13.82;48.82
55656;BME280;41530;52.382;5.270;2024-03-08T06:58:45;101879.81;;;13.84;48.95
55656;BME280;41530;52.382;5.270;2024-03-08T07:01:13;101879.25;;;13.79;48.84
55656;BME280;41530;52.382;5.270;2024-03-08T07:03:41;101870.47;;;13.78;48.67
55656;BME280;41530;52.382;5.270;2024-03-08T07:06:11;101879.59;;;13.87;48.74
55656;BME280;41530;52.382;5.270;2024-03-08T07:08:37;101885.44;;;13.92;48.50
55656;BME280;41530;52.382;5.270;2024-03-08T07:11:04;101874.84;;;13.92;48.53
55656;BME280;41530;52.382;5.270;2024-03-08T07:13:31;101851.88;;;13.80;48.43
55656;BME280;41530;52.382;5.270;2024-03-08T07:15:58;101875.25;;;13.99;48.54
55656;BME280;41530;52.382;5.270;2024-03-08T07:18:27;101856.34;;;13.92;48.11
55656;BME280;41530;52.382;5.270;2024-03-08T07:20:57;101872.97;;;14.07;48.04
55656;BME280;41530;52.382;5.270;2024-03-08T07:23:24;101865.44;;;14.13;48.21
55656;BME280;41530;52.382;5.270;2024-03-08T07:26:09;101854.00;;;14.13;47.79
55656;BME280;41530;52.382;5.270;2024-03-08T07:28:36;101845.75;;;14.17;47.83
55656;BME280;41530;52.382;5.270;2024-03-08T07:31:03;101845.13;;;14.26;47.87
55656;BME280;41530;52.382;5.270;2024-03-08T07:33:38;101864.22;;;14.44;47.52
55656;BME280;41530;52.382;5.270;2024-03-08T07:36:05;101850.88;;;14.46;47.65
55656;BME280;41530;52.382;5.270;2024-03-08T07:38:32;101855.31;;;14.58;47.28
55656;BME280;41530;52.382;5.270;2024-03-08T07:40:59;101846.19;;;14.62;47.46
55656;BME280;41530;52.382;5.270;2024-03-08T07:43:30;101847.13;;;14.74;47.14
55656;BME280;41530;52.382;5.270;2024-03-08T07:45:59;101853.34;;;14.85;47.28
55656;BME280;41530;52.382;5.270;2024-03-08T07:48:26;101827.28;;;14.79;47.12
55656;BME280;41530;52.382;5.270;2024-03-08T07:50:55;101828.72;;;14.96;46.76
55656;BME280;41530;52.382;5.270;2024-03-08T07:53:25;101834.34;;;15.04;46.68
55656;BME280;41530;52.382;5.270;2024-03-08T07:55:55;101818.94;;;15.09;46.46
55656;BME280;41530;52.382;5.270;2024-03-08T07:58:22;101812.44;;;15.13;46.60
55656;BME280;41530;52.382;5.270;2024-03-08T08:00:50;101831.47;;;15.31;46.53
55656;BME280;41530;52.382;5.270;2024-03-08T08:03:16;101820.72;;;15.32;46.25
55656;BME280;41530;52.382;5.270;2024-03-08T08:05:47;101825.25;;;15.43;46.04
55656;BME280;41530;52.382;5.270;2024-03-08T08:08:15;101825.22;;;15.56;45.77
55656;BME280;41530;52.382;5.270;2024-03-08T08:10:42;101806.72;;;15.54;45.81
55656;BME280;41530;52.382;5.270;2024-03-08T08:13:09;101826.34;;;15.76;45.60
55656;BME280;41530;52.382;5.270;2024-03-08T08:15:35;101817.94;;;15.82;45.64
55656;BME280;41530;52.382;5.270;2024-03-08T08:18:03;101811.19;;;15.89;45.69
55656;BME280;41530;52.382;5.270;2024-03-08T08:20:33;101811.81;;;16.03;45.32
55656;BME280;41530;52.382;5.270;2024-03-08T08:23:00;101789.50;;;16.06;45.27
55656;BME280;41530;52.382;5.270;2024-03-08T08:25:26;101802.56;;;16.20;45.01
55656;BME280;41530;52.382;5.270;2024-03-08T08:27:53;101791.31;;;16.28;44.82
55656;BME280;41530;52.382;5.270;2024-03-08T08:30:20;101793.63;;;16.44;44.64
55656;BME280;41530;52.382;5.270;2024-03-08T08:32:47;101791.91;;;16.54;44.55
55656;BME280;41530;52.382;5.270;2024-03-08T08:35:15;101783.47;;;16.60;44.26
55656;BME280;41530;52.382;5.270;2024-03-08T08:37:42;101787.94;;;16.70;44.06
55656;BME280;41530;52.382;5.270;2024-03-08T08:40:09;101791.41;;;16.82;44.01
55656;BME280;41530;52.382;5.270;2024-03-08T08:42:37;101782.22;;;16.86;43.60
55656;BME280;41530;52.382;5.270;2024-03-08T08:45:05;101788.97;;;17.01;43.47
55656;BME280;41530;52.382;5.270;2024-03-08T08:47:42;101782.03;;;17.10;43.42
55656;BME280;41530;52.382;5.270;2024-03-08T08:50:09;101776.78;;;17.20;43.15
55656;BME280;41530;52.382;5.270;2024-03-08T08:52:39;101757.34;;;17.19;43.02
55656;BME280;41530;52.382;5.270;2024-03-08T08:55:06;101772.50;;;17.39;42.78
55656;BME280;41530;52.382;5.270;2024-03-08T08:57:33;101755.16;;;17.45;42.59
55656;BME280;41530;52.382;5.270;2024-03-08T09:00:00;101763.34;;;17.53;42.49
55656;BME280;41530;52.382;5.270;2024-03-08T09:02:27;101765.00;;;17.65;42.28
55656;BME280;41530;52.382;5.270;2024-03-08T09:04:54;101735.25;;;17.60;42.39
55656;BME280;41530;52.382;5.270;2024-03-08T09:07:21;101741.09;;;17.75;42.12
55656;BME280;41530;52.382;5.270;2024-03-08T09:09:48;101718.97;;;17.74;41.94
55656;BME280;41530;52.382;5.270;2024-03-08T09:12:15;101726.75;;;17.87;41.84
55656;BME280;41530;52.382;5.270;2024-03-08T09:14:42;101733.00;;;18.07;41.71
55656;BME280;41530;52.382;5.270;2024-03-08T09:17:09;101735.97;;;18.13;41.17
55656;BME280;41530;52.382;5.270;2024-03-08T09:19:36;101744.03;;;18.23;41.00
55656;BME280;41530;52.382;5.270;2024-03-08T09:22:04;101725.63;;;18.20;41.04
55656;BME280;41530;52.382;5.270;2024-03-08T09:24:31;101686.63;;;18.09;41.04
55656;BME280;41530;52.382;5.270;2024-03-08T09:26:58;101717.69;;;18.39;41.13
55656;BME280;41530;52.382;5.270;2024-03-08T09:29:27;101669.56;;;18.22;40.85
55656;BME280;41530;52.382;5.270;2024-03-08T09:31:54;101713.16;;;18.61;40.55
55656;BME280;41530;52.382;5.270;2024-03-08T09:34:22;101712.59;;;18.67;40.19
55656;BME280;41530;52.382;5.270;2024-03-08T09:36:57;101697.56;;;18.66;39.98
55656;BME280;41530;52.382;5.270;2024-03-08T09:39:24;101706.31;;;18.77;39.71
55656;BME280;41530;52.382;5.270;2024-03-08T09:41:53;101695.47;;;18.79;39.34
55656;BME280;41530;52.382;5.270;2024-03-08T09:44:23;101692.00;;;18.88;39.06
55656;BME280;41530;52.382;5.270;2024-03-08T09:46:54;101681.19;;;18.90;38.95
55656;BME280;41530;52.382;5.270;2024-03-08T09:49:21;101667.28;;;18.86;38.77
55656;BME280;41530;52.382;5.270;2024-03-08T09:51:50;101683.56;;;19.02;38.89
55656;BME280;41530;52.382;5.270;2024-03-08T09:54:19;101662.78;;;18.96;38.44
55656;BME280;41530;52.382;5.270;2024-03-08T09:56:51;101657.06;;;19.01;38.40
55656;BME280;41530;52.382;5.270;2024-03-08T09:59:19;101667.84;;;19.09;38.42
55656;BME280;41530;52.382;5.270;2024-03-08T10:01:54;101658.72;;;19.11;38.35
55656;BME280;41530;52.382;5.270;2024-03-08T10:04:22;101636.09;;;19.06;38.17
55656;BME280;41530;52.382;5.270;2024-03-08T10:06:49;101641.16;;;19.09;38.14
55656;BME280;41530;52.382;5.270;2024-03-08T10:09:16;101652.38;;;19.22;38.58
55656;BME280;41530;52.382;5.270;2024-03-08T10:11:43;101649.56;;;19.23;38.85
55656;BME280;41530;52.382;5.270;2024-03-08T10:14:10;101633.72;;;19.12;37.74
55656;BME280;41530;52.382;5.270;2024-03-08T10:16:40;101632.28;;;19.18;37.36
55656;BME280;41530;52.382;5.270;2024-03-08T10:19:07;101627.66;;;19.20;37.84
55656;BME280;41530;52.382;5.270;2024-03-08T10:21:34;101613.22;;;19.13;37.50
55656;BME280;41530;52.382;5.270;2024-03-08T10:24:02;101639.31;;;19.29;38.26
55656;BME280;41530;52.382;5.270;2024-03-08T10:26:30;101618.81;;;19.19;37.72
55656;BME280;41530;52.382;5.270;2024-03-08T10:28:57;101617.97;;;19.19;37.50
55656;BME280;41530;52.382;5.270;2024-03-08T10:31:25;101609.88;;;19.11;37.52
55656;BME280;41530;52.382;5.270;2024-03-08T10:33:52;101618.69;;;19.21;37.72
55656;BME280;41530;52.382;5.270;2024-03-08T10:36:19;101596.66;;;19.09;38.42
55656;BME280;41530;52.382;5.270;2024-03-08T10:38:46;101594.72;;;19.11;38.42
55656;BME280;41530;52.382;5.270;2024-03-08T10:41:15;101592.31;;;19.08;38.63
55656;BME280;41530;52.382;5.270;2024-03-08T10:43:57;101608.47;;;19.16;37.43
55656;BME280;41530;52.382;5.270;2024-03-08T10:49:12;101604.41;;;19.03;37.60
55656;BME280;41530;52.382;5.270;2024-03-08T10:51:44;101589.53;;;19.00;38.29
55656;BME280;41530;52.382;5.270;2024-03-08T10:54:13;101582.25;;;19.02;38.62
55656;BME280;41530;52.382;5.270;2024-03-08T10:56:42;101578.88;;;19.00;38.15
55656;BME280;41530;52.382;5.270;2024-03-08T10:59:09;101558.69;;;18.88;37.94
55656;BME280;41530;52.382;5.270;2024-03-08T11:01:36;101571.44;;;18.94;38.72
55656;BME280;41530;52.382;5.270;2024-03-08T11:04:04;101558.00;;;18.86;38.86
55656;BME280;41530;52.382;5.270;2024-03-08T11:06:42;101540.34;;;18.75;38.01
55656;BME280;41530;52.382;5.270;2024-03-08T11:09:30;101546.19;;;18.79;38.03
55656;BME280;41530;52.382;5.270;2024-03-08T11:14:53;101542.72;;;18.69;38.52
55656;BME280;41530;52.382;5.270;2024-03-08T11:20:01;101514.09;;;18.42;39.24
55656;BME280;41530;52.382;5.270;2024-03-08T11:22:33;101518.59;;;18.41;39.09
55656;BME280;41530;52.382;5.270;2024-03-08T11:25:04;101516.38;;;18.37;38.87
55656;BME280;41530;52.382;5.270;2024-03-08T11:27:36;101499.66;;;18.25;39.35
55656;BME280;41530;52.382;5.270;2024-03-08T11:30:05;101517.06;;;18.29;39.21
55656;BME280;41530;52.382;5.270;2024-03-08T11:32:47;101503.59;;;18.21;39.42
55656;BME280;41530;52.382;5.270;2024-03-08T11:35:21;101501.63;;;18.13;39.62
55656;BME280;41530;52.382;5.270;2024-03-08T11:37:50;101505.56;;;18.09;40.00
55656;BME280;41530;52.382;5.270;2024-03-08T11:40:17;101490.72;;;17.97;39.91
55656;BME280;41530;52.382;5.270;2024-03-08T11:42:46;101472.63;;;17.82;40.10
55656;BME280;41530;52.382;5.270;2024-03-08T11:45:18;101478.22;;;17.78;39.67
55656;BME280;41530;52.382;5.270;2024-03-08T11:47:48;101487.16;;;17.77;39.90
55656;BME280;41530;52.382;5.270;2024-03-08T11:50:17;101459.25;;;17.62;40.04
55656;BME280;41530;52.382;5.270;2024-03-08T11:52:46;101470.63;;;17.64;40.48
55656;BME280;41530;52.382;5.270;2024-03-08T11:55:13;101466.63;;;17.59;40.68
55656;BME280;41530;52.382;5.270;2024-03-08T11:57:40;101450.38;;;17.42;40.30
55656;BME280;41530;52.382;5.270;2024-03-08T12:00:15;101461.03;;;17.52;40.14
55656;BME280;41530;52.382;5.270;2024-03-08T12:03:02;101449.53;;;17.42;40.20
55656;BME280;41530;52.382;5.270;2024-03-08T12:05:29;101432.56;;;17.33;40.97
55656;BME280;41530;52.382;5.270;2024-03-08T12:07:57;101437.03;;;17.33;41.23
55656;BME280;41530;52.382;5.270;2024-03-08T12:10:28;101442.34;;;17.33;40.99
55656;BME280;41530;52.382;5.270;2024-03-08T12:12:58;101431.97;;;17.20;41.20
55656;BME280;41530;52.382;5.270;2024-03-08T12:15:30;101406.91;;;17.13;41.52
55656;BME280;41530;52.382;5.270;2024-03-08T12:18:00;101420.50;;;17.20;41.47
55656;BME280;41530;52.382;5.270;2024-03-08T12:20:30;101416.31;;;17.17;41.44
55656;BME280;41530;52.382;5.270;2024-03-08T12:22:58;101415.88;;;17.12;41.60
55656;BME280;41530;52.382;5.270;2024-03-08T12:25:32;101409.72;;;17.12;40.99
55656;BME280;41530;52.382;5.270;2024-03-08T12:28:12;101385.06;;;17.00;40.99
55656;BME280;41530;52.382;5.270;2024-03-08T12:31:00;101392.06;;;17.01;41.53
55656;BME280;41530;52.382;5.270;2024-03-08T12:33:27;101391.47;;;16.97;41.19
55656;BME280;41530;52.382;5.270;2024-03-08T12:35:55;101374.09;;;16.93;42.09
55656;BME280;41530;52.382;5.270;2024-03-08T12:38:23;101377.47;;;16.95;42.29
55656;BME280;41530;52.382;5.270;2024-03-08T12:41:00;101363.06;;;16.88;41.68
55656;BME280;41530;52.382;5.270;2024-03-08T12:43:28;101324.63;;;16.62;42.53
55656;BME280;41530;52.382;5.270;2024-03-08T12:46:00;101365.84;;;16.87;43.09
55656;BME280;41530;52.382;5.270;2024-03-08T12:48:27;101346.38;;;16.77;43.88
55656;BME280;41530;52.382;5.270;2024-03-08T12:50:54;101357.75;;;16.88;44.00
55656;BME280;41530;52.382;5.270;2024-03-08T12:53:24;101362.63;;;16.93;45.22
55656;BME280;41530;52.382;5.270;2024-03-08T12:55:52;101362.63;;;16.93;44.86
55656;BME280;41530;52.382;5.270;2024-03-08T12:58:19;101338.13;;;16.80;44.67
55656;BME280;41530;52.382;5.270;2024-03-08T13:00:46;101344.59;;;16.87;44.35
55656;BME280;41530;52.382;5.270;2024-03-08T13:03:19;101334.63;;;16.79;44.37
55656;BME280;41530;52.382;5.270;2024-03-08T13:05:46;101345.81;;;16.83;44.20